createdAt,value
2023-01-13T00:00:31.726Z,99654.53
2023-01-13T00:02:59.693Z,99660.69
2023-01-13T00:05:28.368Z,99658.06
2023-01-13T00:07:56.406Z,99667.72
2023-01-13T00:10:24.718Z,99656.31
2023-01-13T00:12:53.553Z,99657.19
2023-01-13T00:15:21.633Z,99656.38
2023-01-13T00:17:51.187Z,99658.09
2023-01-13T00:20:19.376Z,99654.59
2023-01-13T00:22:47.525Z,99655.47
2023-01-13T00:25:15.782Z,99657.22
2023-01-13T00:27:43.770Z,99658.94
2023-01-13T00:30:13.001Z,99652.00
2023-01-13T00:32:40.806Z,99638.91
2023-01-13T00:35:10.984Z,99649.38
2023-01-13T00:37:39.319Z,99653.03
2023-01-13T00:40:08.391Z,99648.59
2023-01-13T00:42:54.108Z,99645.06
2023-01-13T00:45:22.007Z,99641.56
2023-01-13T00:47:49.814Z,99646.88
2023-01-13T00:50:19.384Z,99650.34
2023-01-13T00:52:47.179Z,99646.00
2023-01-13T00:55:15.270Z,99648.59
2023-01-13T00:57:43.084Z,99646.78
2023-01-13T01:00:12.210Z,99643.31
2023-01-13T01:02:40.158Z,99638.94
2023-01-13T01:05:08.873Z,99651.22
2023-01-13T01:07:38.270Z,99643.34
2023-01-13T01:10:07.174Z,99652.94
2023-01-13T01:12:35.843Z,99652.94
2023-01-13T01:15:06.044Z,99648.59
2023-01-13T01:17:34.268Z,99652.94
2023-01-13T01:20:02.213Z,99652.94
2023-01-13T01:22:30.335Z,99655.56
2023-01-13T01:24:59.905Z,99642.47
2023-01-13T01:27:27.787Z,99665.22
2023-01-13T01:29:55.630Z,99652.13
2023-01-13T01:32:23.477Z,99648.63
2023-01-13T01:34:51.991Z,99646.00
2023-01-13T01:37:19.834Z,99652.13
2023-01-13T01:39:47.695Z,99638.97
2023-01-13T01:42:36.690Z,99646.88
2023-01-13T01:45:14.772Z,99652.16
2023-01-13T01:47:43.978Z,99634.59
2023-01-13T01:50:13.137Z,99639.00
2023-01-13T01:52:45.429Z,99634.59
2023-01-13T01:55:17.606Z,99635.41
2023-01-13T01:57:51.606Z,99635.38
2023-01-13T02:00:19.884Z,99630.94
2023-01-13T02:02:51.310Z,99636.16
2023-01-13T02:05:19.621Z,99626.50
2023-01-13T02:07:50.401Z,99624.69
2023-01-13T02:10:21.259Z,99619.38
2023-01-13T02:12:51.853Z,99615.84
2023-01-13T02:15:23.933Z,99621.94
2023-01-13T02:18:06.669Z,99610.53
2023-01-13T02:20:57.263Z,99619.25
2023-01-13T02:24:17.558Z,99624.50
2023-01-13T02:27:25.187Z,99621.00
2023-01-13T02:30:23.460Z,99627.13
2023-01-13T02:33:04.417Z,99617.44
2023-01-13T02:35:41.051Z,99615.66
2023-01-13T02:38:12.094Z,99609.44
2023-01-13T02:40:46.890Z,99605.03
2023-01-13T02:43:36.047Z,99606.75
2023-01-13T02:46:10.652Z,99612.00
2023-01-13T02:48:41.670Z,99612.78
2023-01-13T02:51:15.576Z,99606.63
2023-01-13T02:53:48.017Z,99616.25
2023-01-13T02:56:17.907Z,99609.22
2023-01-13T02:58:48.271Z,99603.94
2023-01-13T03:01:18.033Z,99603.06
2023-01-13T03:03:46.974Z,99611.81
2023-01-13T03:06:39.266Z,99603.88
2023-01-13T03:09:13.245Z,99609.06
2023-01-13T03:11:51.887Z,99606.41
2023-01-13T03:14:28.803Z,99607.28
2023-01-13T03:17:11.301Z,99599.38
2023-01-13T03:19:45.111Z,99594.06
2023-01-13T03:22:23.260Z,99600.19
2023-01-13T03:24:54.637Z,99587.03
2023-01-13T03:27:27.762Z,99592.31
2023-01-13T03:30:01.992Z,99599.25
2023-01-13T03:32:35.539Z,99595.69
2023-01-13T03:35:10.121Z,99588.66
2023-01-13T03:37:42.564Z,99585.09
2023-01-13T03:40:15.238Z,99573.72
2023-01-13T03:43:06.049Z,99586.84
2023-01-13T03:45:35.855Z,99589.47
2023-01-13T03:48:10.340Z,99585.16
2023-01-13T03:50:43.063Z,99586.84
2023-01-13T03:53:15.544Z,99591.19
2023-01-13T03:55:47.173Z,99592.94
2023-01-13T03:58:20.385Z,99594.66
2023-01-13T04:00:52.550Z,99589.38
2023-01-13T04:03:26.184Z,99590.28
2023-01-13T04:06:05.396Z,99593.84
2023-01-13T04:08:35.982Z,99592.94
2023-01-13T04:11:06.706Z,99590.31
2023-01-13T04:13:39.570Z,99583.34
2023-01-13T04:16:09.243Z,99581.56
2023-01-13T04:18:40.569Z,99593.91
2023-01-13T04:21:09.388Z,99578.13
2023-01-13T04:23:37.398Z,99582.47
2023-01-13T04:26:05.399Z,99580.75
2023-01-13T04:28:34.873Z,99580.72
2023-01-13T04:31:02.861Z,99583.34
2023-01-13T04:33:30.690Z,99576.34
2023-01-13T04:36:00.092Z,99578.09
2023-01-13T04:38:27.957Z,99588.59
2023-01-13T04:40:55.843Z,99578.09
2023-01-13T04:43:23.740Z,99582.41
2023-01-13T04:45:52.069Z,99585.94
2023-01-13T04:48:20.082Z,99586.84
2023-01-13T04:50:48.525Z,99589.44
2023-01-13T04:53:17.992Z,99589.47
2023-01-13T04:55:47.939Z,99581.63
2023-01-13T04:58:15.845Z,99586.91
2023-01-13T05:00:43.766Z,99593.09
2023-01-13T05:03:11.644Z,99580.88
2023-01-13T05:05:39.720Z,99598.50
2023-01-13T05:08:09.065Z,99594.16
2023-01-13T05:10:38.341Z,99594.28
2023-01-13T05:13:23.036Z,99594.41
2023-01-13T05:16:19.851Z,99599.78
2023-01-13T05:18:47.784Z,99613.94
2023-01-13T05:21:29.522Z,99607.84
2023-01-13T05:24:14.750Z,99609.66
2023-01-13T05:26:44.220Z,99612.31
2023-01-13T05:29:12.157Z,99604.34
2023-01-13T05:31:40.238Z,99613.03
2023-01-13T05:34:08.123Z,99608.59
2023-01-13T05:36:36.128Z,99610.28
2023-01-13T05:39:05.484Z,99608.44
2023-01-13T05:41:51.097Z,99611.03
2023-01-13T05:44:20.329Z,99620.63
2023-01-13T05:46:48.461Z,99620.53
2023-01-13T05:49:16.298Z,99608.25
2023-01-13T05:51:44.101Z,99609.06
2023-01-13T05:54:12.062Z,99611.66
2023-01-13T05:56:39.866Z,99614.22
2023-01-13T05:59:07.796Z,99611.56
2023-01-13T06:01:37.262Z,99613.28
2023-01-13T06:04:05.599Z,99613.28
2023-01-13T06:06:33.664Z,99616.78
2023-01-13T06:09:01.710Z,99624.56
2023-01-13T06:11:30.210Z,99621.03
2023-01-13T06:13:58.260Z,99638.56
2023-01-13T06:16:26.085Z,99631.53
2023-01-13T06:18:55.825Z,99637.66
2023-01-13T06:21:23.665Z,99628.84
2023-01-13T06:23:51.564Z,99643.75
2023-01-13T06:26:21.996Z,99629.72
2023-01-13T06:28:50.047Z,99635.84
2023-01-13T06:31:18.229Z,99639.34
2023-01-13T06:33:50.578Z,99636.75
2023-01-13T06:36:22.162Z,99642.88
2023-01-13T06:38:55.214Z,99646.41
2023-01-13T06:41:43.788Z,99649.06
2023-01-13T06:44:10.872Z,99673.63
2023-01-13T06:46:38.904Z,99674.56
2023-01-13T06:49:07.005Z,99672.00
2023-01-13T06:51:36.433Z,99670.25
2023-01-13T06:54:04.723Z,99667.69
2023-01-13T06:56:32.668Z,99650.16
2023-01-13T06:59:00.508Z,99650.16
2023-01-13T07:01:28.464Z,99655.41
2023-01-13T07:03:56.589Z,99656.28
2023-01-13T07:06:24.343Z,99653.66
2023-01-13T07:08:53.584Z,99644.84
2023-01-13T07:11:21.809Z,99640.44
2023-01-13T07:14:06.999Z,99637.72
2023-01-13T07:16:34.815Z,99628.97
2023-01-13T07:19:02.898Z,99651.78
2023-01-13T07:21:30.722Z,99661.38
2023-01-13T07:24:00.044Z,99651.72
2023-01-13T07:26:27.974Z,99664.88
2023-01-13T07:28:55.758Z,99654.31
2023-01-13T07:31:24.261Z,99649.91
2023-01-13T07:33:52.097Z,99631.44
2023-01-13T07:36:20.263Z,99651.59
2023-01-13T07:38:48.226Z,99648.00
2023-01-13T07:41:37.371Z,99629.53
2023-01-13T07:44:06.292Z,99633.91
2023-01-13T07:46:34.217Z,99618.97
2023-01-13T07:49:01.998Z,99629.47
2023-01-13T07:51:29.846Z,99639.09
2023-01-13T07:53:57.727Z,99618.00
2023-01-13T07:56:26.924Z,99613.63
2023-01-13T07:58:54.821Z,99608.28
2023-01-13T08:01:23.081Z,99612.63
2023-01-13T08:03:51.067Z,99618.78
2023-01-13T08:06:20.359Z,99631.00
2023-01-13T08:08:48.336Z,99644.22
2023-01-13T08:11:16.185Z,99655.63
2023-01-13T08:13:45.389Z,99660.06
2023-01-13T08:16:15.110Z,99651.28
2023-01-13T08:18:44.097Z,99655.72
2023-01-13T08:21:13.706Z,99667.09
2023-01-13T08:23:41.863Z,99678.53
2023-01-13T08:26:11.620Z,99685.56
2023-01-13T08:28:41.425Z,99688.22
2023-01-13T08:31:13.623Z,99700.53
2023-01-13T08:33:42.418Z,99687.38
2023-01-13T08:36:12.529Z,99690.81
2023-01-13T08:38:40.760Z,99689.25
2023-01-13T08:41:12.416Z,99690.25
2023-01-13T08:43:40.088Z,99699.94
2023-01-13T08:46:07.909Z,99707.03
2023-01-13T08:48:37.446Z,99711.50
2023-01-13T08:51:05.673Z,99708.00
2023-01-13T08:53:33.320Z,99683.41
2023-01-13T08:56:00.917Z,99673.75
2023-01-13T08:58:28.478Z,99666.75
2023-01-13T09:00:56.251Z,99678.09
2023-01-13T09:03:23.953Z,99691.19
2023-01-13T09:05:52.934Z,99696.44
2023-01-13T09:08:20.584Z,99707.72
2023-01-13T09:10:48.539Z,99733.09
2023-01-13T09:13:15.701Z,99729.53
2023-01-13T09:15:45.142Z,99729.44
2023-01-13T09:18:13.559Z,99725.03
2023-01-13T09:20:41.504Z,99735.59
2023-01-13T09:23:11.426Z,99730.38
2023-01-13T09:25:39.542Z,99708.53
2023-01-13T09:28:08.399Z,99699.84
2023-01-13T09:30:36.545Z,99652.50
2023-01-13T09:33:21.732Z,99596.44
2023-01-13T09:35:49.455Z,99628.94
2023-01-13T09:38:18.644Z,99638.66
2023-01-13T09:40:48.940Z,99625.53
2023-01-13T09:43:36.818Z,99701.88
2023-01-13T09:46:06.638Z,99674.72
2023-01-13T09:48:51.824Z,99641.41
2023-01-13T09:51:25.737Z,99673.00
2023-01-13T09:53:59.270Z,99669.53
2023-01-13T09:56:27.068Z,99685.34
2023-01-13T09:58:54.862Z,99683.63
2023-01-13T10:01:25.740Z,99673.09
2023-01-13T10:03:54.517Z,99662.59
2023-01-13T10:06:25.683Z,99683.69
2023-01-13T10:08:53.753Z,99695.13
2023-01-13T10:11:40.954Z,99682.91
2023-01-13T10:14:13.590Z,99688.28
2023-01-13T10:16:44.839Z,99682.28
2023-01-13T10:19:16.145Z,99681.53
2023-01-13T10:22:02.596Z,99680.78
2023-01-13T10:24:36.379Z,99686.16
2023-01-13T10:27:08.025Z,99689.78
2023-01-13T10:29:37.279Z,99685.56
2023-01-13T10:32:05.411Z,99680.41
2023-01-13T10:34:45.852Z,99690.16
2023-01-13T10:37:20.846Z,99693.72
2023-01-13T10:39:49.371Z,99698.16
2023-01-13T10:42:19.891Z,99691.16
2023-01-13T10:44:48.727Z,99697.31
2023-01-13T10:47:34.334Z,99692.09
2023-01-13T10:50:19.470Z,99699.97
2023-01-13T10:52:58.246Z,99700.78
2023-01-13T10:55:27.255Z,99697.25
2023-01-13T10:57:56.457Z,99689.31
2023-01-13T11:00:28.278Z,99692.72
2023-01-13T11:03:17.140Z,99692.63
2023-01-13T11:05:52.705Z,99696.91
2023-01-13T11:08:21.471Z,99695.03
2023-01-13T11:10:50.770Z,99708.97
2023-01-13T11:13:25.023Z,99694.78
2023-01-13T11:15:56.177Z,99700.75
2023-01-13T11:18:28.951Z,99705.03
2023-01-13T11:20:57.845Z,99712.69
2023-01-13T11:23:31.363Z,99712.59
2023-01-13T11:26:02.867Z,99714.22
2023-01-13T11:28:40.459Z,99706.22
2023-01-13T11:31:11.887Z,99704.31
2023-01-13T11:33:42.475Z,99697.16
2023-01-13T11:36:13.319Z,99700.53
2023-01-13T11:38:44.163Z,99696.00
2023-01-13T11:41:16.156Z,99702.88
2023-01-13T11:43:48.173Z,99702.78
2023-01-13T11:46:16.142Z,99699.13
2023-01-13T11:48:44.345Z,99690.22
2023-01-13T11:51:20.320Z,99693.66
2023-01-13T11:54:02.227Z,99704.97
2023-01-13T11:56:39.409Z,99694.47
2023-01-13T11:59:14.330Z,99691.97
2023-01-13T12:01:50.162Z,99701.81
2023-01-13T12:04:24.544Z,99698.47
2023-01-13T12:07:00.241Z,99699.44
2023-01-13T12:09:33.640Z,99708.38
2023-01-13T12:12:27.480Z,99700.63
2023-01-13T12:15:13.130Z,99701.63
2023-01-13T12:17:48.936Z,99703.34
2023-01-13T12:20:25.763Z,99694.59
2023-01-13T12:22:57.771Z,99700.69
2023-01-13T12:25:30.317Z,99692.72
2023-01-13T12:28:00.591Z,99704.97
2023-01-13T12:30:30.427Z,99691.75
2023-01-13T12:33:05.453Z,99704.81
2023-01-13T12:35:39.197Z,99711.72
2023-01-13T12:38:12.762Z,99709.00
2023-01-13T12:40:48.044Z,99700.06
2023-01-13T12:43:38.243Z,99715.66
2023-01-13T12:46:33.138Z,99721.63
2023-01-13T12:49:08.377Z,99703.91
2023-01-13T12:51:37.418Z,99714.34
2023-01-13T12:54:25.445Z,99712.59
2023-01-13T12:56:54.628Z,99719.59
2023-01-13T12:59:48.671Z,99704.66
2023-01-13T13:02:36.557Z,99709.06
2023-01-13T13:05:22.814Z,99723.06
2023-01-13T13:07:53.024Z,99724.66
2023-01-13T13:10:28.850Z,99735.94
2023-01-13T13:13:18.282Z,99721.81
2023-01-13T13:15:46.755Z,99733.97
2023-01-13T13:18:23.939Z,99736.47
2023-01-13T13:21:05.776Z,99734.59
2023-01-13T13:23:51.454Z,99737.91
2023-01-13T13:26:28.979Z,99736.03
2023-01-13T13:29:06.557Z,99745.63
2023-01-13T13:31:42.552Z,99731.59
2023-01-13T13:34:16.739Z,99751.81
2023-01-13T13:37:08.610Z,99750.97
2023-01-13T13:40:00.161Z,99746.66
2023-01-13T13:42:48.570Z,99744.06
2023-01-13T13:45:38.363Z,99750.28
2023-01-13T13:48:20.517Z,99754.75
2023-01-13T13:50:48.746Z,99746.88
2023-01-13T13:53:18.336Z,99748.72
2023-01-13T13:55:54.004Z,99745.22
2023-01-13T13:58:26.336Z,99754.91
2023-01-13T14:00:54.722Z,99753.25
2023-01-13T14:03:25.020Z,99751.50
2023-01-13T14:05:57.503Z,99748.97
2023-01-13T14:08:25.621Z,99758.69
2023-01-13T14:10:53.392Z,99757.03
2023-01-13T14:13:22.292Z,99773.84
2023-01-13T14:15:57.235Z,99765.09
2023-01-13T14:18:25.938Z,99764.31
2023-01-13T14:20:54.106Z,99768.75
2023-01-13T14:23:24.508Z,99760.91
2023-01-13T14:25:52.824Z,99766.22
2023-01-13T14:28:25.514Z,99767.16
2023-01-13T14:30:55.577Z,99769.00
2023-01-13T14:33:24.876Z,99777.00
2023-01-13T14:36:11.423Z,99782.41
2023-01-13T14:38:39.094Z,99780.81
2023-01-13T14:41:12.496Z,99781.88
2023-01-13T14:43:43.966Z,99787.28
2023-01-13T14:46:14.056Z,99779.47
2023-01-13T14:48:47.043Z,99776.03
2023-01-13T14:51:21.628Z,99780.53
2023-01-13T14:53:49.887Z,99778.81
2023-01-13T14:56:40.783Z,99785.00
2023-01-13T14:59:27.161Z,99788.66
2023-01-13T15:01:57.514Z,99786.09
2023-01-13T15:04:26.379Z,99777.41
2023-01-13T15:06:55.934Z,99773.06
2023-01-13T15:09:24.899Z,99772.25
2023-01-13T15:11:54.280Z,99774.94
2023-01-13T15:14:24.869Z,99775.88
2023-01-13T15:16:52.612Z,99784.72
2023-01-13T15:19:21.730Z,99786.56
2023-01-13T15:21:49.566Z,99788.41
2023-01-13T15:24:17.364Z,99791.16
2023-01-13T15:26:45.368Z,99796.50
2023-01-13T15:29:14.673Z,99792.22
2023-01-13T15:31:42.518Z,99806.31
2023-01-13T15:34:10.269Z,99794.16
2023-01-13T15:36:40.775Z,99798.63
2023-01-13T15:39:08.619Z,99799.53
2023-01-13T15:41:53.971Z,99796.97
2023-01-13T15:44:39.145Z,99804.94
2023-01-13T15:47:08.445Z,99806.75
2023-01-13T15:49:37.719Z,99809.47
2023-01-13T15:52:18.856Z,99807.81
2023-01-13T15:54:46.503Z,99812.28
2023-01-13T15:57:21.208Z,99817.63
2023-01-13T15:59:49.403Z,99815.94
2023-01-13T16:02:18.396Z,99816.91
2023-01-13T16:04:46.377Z,99816.97
2023-01-13T16:07:16.691Z,99817.88
2023-01-13T16:09:45.048Z,99821.44
2023-01-13T16:12:12.890Z,99821.44
2023-01-13T16:14:41.715Z,99830.28
2023-01-13T16:17:14.876Z,99837.31
2023-01-13T16:19:42.655Z,99829.47
2023-01-13T16:22:13.102Z,99828.63
2023-01-13T16:24:43.334Z,99833.91
2023-01-13T16:27:14.241Z,99834.81
2023-01-13T16:29:42.225Z,99842.69
2023-01-13T16:32:10.127Z,99841.88
2023-01-13T16:34:37.969Z,99844.50
2023-01-13T16:37:07.033Z,99841.88
2023-01-13T16:39:34.800Z,99848.91
2023-01-13T16:42:03.908Z,99842.78
2023-01-13T16:44:31.635Z,99852.47
2023-01-13T16:46:59.483Z,99863.81
2023-01-13T16:49:27.472Z,99870.84
2023-01-13T16:51:55.311Z,99870.03
2023-01-13T16:54:23.011Z,99871.78
2023-01-13T16:56:50.806Z,99867.44
2023-01-13T16:59:21.493Z,99874.50
2023-01-13T17:01:49.391Z,99875.38
2023-01-13T17:04:18.346Z,99881.50
2023-01-13T17:06:51.725Z,99887.69
2023-01-13T17:09:20.530Z,99878.06
2023-01-13T17:11:48.243Z,99888.59
2023-01-13T17:14:19.274Z,99899.97
2023-01-13T17:16:48.591Z,99925.41
2023-01-13T17:19:16.298Z,99898.34
2023-01-13T17:21:44.195Z,99905.38
2023-01-13T17:24:12.760Z,99905.41
2023-01-13T17:26:43.342Z,99913.28
2023-01-13T17:29:13.572Z,99922.94
2023-01-13T17:31:41.493Z,99910.72
2023-01-13T17:34:11.428Z,99915.13
2023-01-13T17:36:39.245Z,99914.25
2023-01-13T17:39:07.002Z,99915.16
2023-01-13T17:41:34.741Z,99923.06
2023-01-13T17:44:02.588Z,99921.38
2023-01-13T17:46:30.266Z,99926.63
2023-01-13T17:48:58.169Z,99923.19
2023-01-13T17:51:27.432Z,99924.09
2023-01-13T17:53:55.228Z,99930.28
2023-01-13T17:56:24.668Z,99928.59
2023-01-13T17:58:52.444Z,99935.66
2023-01-13T18:01:22.922Z,99923.47
2023-01-13T18:03:50.884Z,99924.41
2023-01-13T18:06:19.549Z,99941.97
2023-01-13T18:08:49.061Z,99940.25
2023-01-13T18:11:18.758Z,99934.16
2023-01-13T18:13:49.438Z,99936.81
2023-01-13T18:16:18.393Z,99944.69
2023-01-13T18:18:48.219Z,99938.63
2023-01-13T18:21:36.947Z,99938.66
2023-01-13T18:24:24.363Z,99961.44
2023-01-13T18:27:10.056Z,99936.09
2023-01-13T18:29:37.844Z,99945.75
2023-01-13T18:32:07.646Z,99936.13
2023-01-13T18:34:35.928Z,99951.00
2023-01-13T18:37:03.625Z,99959.75
2023-01-13T18:39:32.953Z,99979.03
2023-01-13T18:42:18.163Z,99971.19
2023-01-13T18:44:48.210Z,99971.22
2023-01-13T18:47:16.169Z,99977.34
2023-01-13T18:49:44.154Z,99985.25
2023-01-13T18:52:28.008Z,99985.25
2023-01-13T18:55:04.120Z,99982.59
2023-01-13T18:57:31.986Z,99984.34
2023-01-13T19:00:01.663Z,99985.19
2023-01-13T19:02:31.636Z,99989.56
2023-01-13T19:05:01.718Z,99985.16
2023-01-13T19:07:32.286Z,99992.97
2023-01-13T19:10:01.701Z,99996.41
2023-01-13T19:12:33.666Z,99999.00
2023-01-13T19:15:02.740Z,99992.84
2023-01-13T19:17:32.366Z,100008.53
2023-01-13T19:20:00.385Z,100011.13
2023-01-13T19:22:30.354Z,100015.50
2023-01-13T19:24:58.248Z,100013.75
2023-01-13T19:27:28.451Z,100018.13
2023-01-13T19:30:00.160Z,100025.13
2023-01-13T19:32:30.623Z,100039.13
2023-01-13T19:34:59.512Z,100037.38
2023-01-13T19:37:30.296Z,100037.38
2023-01-13T19:39:59.068Z,100027.75
2023-01-13T19:42:45.817Z,100040.88
2023-01-13T19:45:32.175Z,100041.75
2023-01-13T19:48:02.001Z,100038.25
2023-01-13T19:50:29.838Z,100044.38
2023-01-13T19:52:57.897Z,100051.38
2023-01-13T19:55:25.865Z,100048.75
2023-01-13T19:57:54.923Z,100047.00
2023-01-13T20:00:23.742Z,100064.50
2023-01-13T20:02:53.248Z,100057.53
2023-01-13T20:05:22.660Z,100058.38
2023-01-13T20:07:51.151Z,100064.50
2023-01-13T20:10:19.587Z,100058.31
2023-01-13T20:12:47.380Z,100062.69
2023-01-13T20:15:16.587Z,100068.75
2023-01-13T20:17:44.527Z,100068.75
2023-01-13T20:20:12.532Z,100074.84
2023-01-13T20:22:40.590Z,100066.97
2023-01-13T20:25:08.993Z,100069.59
2023-01-13T20:27:36.980Z,100083.63
2023-01-13T20:30:05.268Z,100079.22
2023-01-13T20:32:34.380Z,100085.31
2023-01-13T20:35:01.980Z,100082.69
2023-01-13T20:37:29.667Z,100091.44
2023-01-13T20:39:58.341Z,100090.53
2023-01-13T20:42:32.327Z,100080.03
2023-01-13T20:45:00.994Z,100080.94
2023-01-13T20:47:29.366Z,100084.44
2023-01-13T20:49:59.056Z,100089.66
2023-01-13T20:52:27.155Z,100092.28
2023-01-13T20:54:54.829Z,100097.56
2023-01-13T20:57:22.626Z,100108.06
2023-01-13T20:59:50.325Z,100098.44
2023-01-13T21:02:19.426Z,100101.06
2023-01-13T21:04:47.185Z,100095.00
2023-01-13T21:07:16.603Z,100096.75
2023-01-13T21:09:44.168Z,100089.75
2023-01-13T21:12:31.945Z,100101.16
2023-01-13T21:15:17.838Z,100094.19
2023-01-13T21:18:03.369Z,100097.69
2023-01-13T21:20:33.245Z,100095.06
2023-01-13T21:23:03.067Z,100107.34
2023-01-13T21:25:31.346Z,100104.75
2023-01-13T21:28:03.257Z,100118.78
2023-01-13T21:30:30.924Z,100112.63
2023-01-13T21:33:00.727Z,100114.38
2023-01-13T21:35:28.961Z,100114.41
2023-01-13T21:37:56.650Z,100117.03
2023-01-13T21:40:25.807Z,100124.91
2023-01-13T21:43:11.129Z,100127.53
2023-01-13T21:45:56.738Z,100124.91
2023-01-13T21:48:24.821Z,100140.66
2023-01-13T21:50:52.554Z,100130.16
2023-01-13T21:53:20.573Z,100133.66
2023-01-13T21:55:52.983Z,100146.78
2023-01-13T21:58:21.117Z,100149.44
2023-01-13T22:00:49.737Z,100139.88
2023-01-13T22:03:18.527Z,100143.34
2023-01-13T22:05:47.115Z,100143.38
2023-01-13T22:08:14.994Z,100164.38
2023-01-13T22:10:57.263Z,100145.19
2023-01-13T22:13:44.384Z,100157.47
2023-01-13T22:16:12.365Z,100155.78
2023-01-13T22:18:40.118Z,100159.31
2023-01-13T22:21:08.053Z,100167.22
2023-01-13T22:23:35.636Z,100134.91
2023-01-13T22:26:03.591Z,100159.34
2023-01-13T22:28:39.819Z,100173.31
2023-01-13T22:31:08.832Z,100154.97
2023-01-13T22:33:36.590Z,100161.09
2023-01-13T22:36:04.687Z,100175.91
2023-01-13T22:38:33.403Z,100164.59
2023-01-13T22:41:01.952Z,100193.44
2023-01-13T22:43:30.176Z,100186.47
2023-01-13T22:45:59.730Z,100184.75
2023-01-13T22:48:27.599Z,100192.63
2023-01-13T22:50:55.645Z,100189.16
2023-01-13T22:53:23.249Z,100186.53
2023-01-13T22:55:55.092Z,100183.03
2023-01-13T22:58:23.130Z,100197.03
2023-01-13T23:00:50.739Z,100209.25
2023-01-13T23:03:20.471Z,100216.25
2023-01-13T23:05:48.316Z,100197.88
2023-01-13T23:08:16.010Z,100214.47
2023-01-13T23:10:44.364Z,100212.75
2023-01-13T23:13:11.989Z,100213.59
2023-01-13T23:15:39.668Z,100224.09
2023-01-13T23:18:07.501Z,100202.28
2023-01-13T23:20:36.834Z,100215.38
2023-01-13T23:23:04.555Z,100224.97
2023-01-13T23:25:32.332Z,100217.97
2023-01-13T23:28:00.001Z,100221.47
2023-01-13T23:30:27.739Z,100213.59
2023-01-13T23:32:55.494Z,100221.47
2023-01-13T23:35:23.109Z,100230.22
2023-01-13T23:37:52.766Z,100231.97
2023-01-13T23:40:20.392Z,100232.00
2023-01-13T23:42:48.116Z,100238.13
2023-01-13T23:45:15.896Z,100229.41
2023-01-13T23:47:43.728Z,100231.19
2023-01-13T23:50:11.968Z,100234.69
2023-01-13T23:52:39.805Z,100237.31
2023-01-13T23:55:09.538Z,100232.09
2023-01-13T23:57:37.210Z,100238.22
